Time;durP1;ratioP1;P1;durP2;ratioP2;P2;SDS_P1;SDS_P2;PMS_P1;PMS_P2;Temp;Humidity;BMP_temperature;BMP_pressure;BME280_temperature;BME280_humidity;BME280_pressure;Samples;Min_cycle;Max_cycle;Signal;HPM_P1;HPM_P2
2021/04/09 09:57:49;;;;;;;7.43;2.67;;;14.40;92.20;;;;;;6095492;23;20571;-73
2021/04/09 10:00:25;;;;;;;5.23;1.90;;;14.40;92.10;;;;;;6096526;23;20642;-71
2021/04/09 10:03:08;;;;;;;3.53;2.00;;;14.30;92.10;;;;;;6096366;23;20277;-73
2021/04/09 10:05:34;;;;;;;3.23;1.90;;;14.30;92.30;;;;;;6097221;23;20187;-71
2021/04/09 10:08:01;;;;;;;5.30;1.50;;;14.30;92.40;;;;;;6096305;23;20527;-73
2021/04/09 10:10:37;;;;;;;4.10;1.90;;;14.30;92.20;;;;;;6092402;23;20648;-73
2021/04/09 10:13:20;;;;;;;2.87;1.57;;;14.40;91.90;;;;;;6094797;23;20206;-74
2021/04/09 10:15:48;;;;;;;3.63;2.07;;;14.50;92.60;;;;;;6092354;23;20545;-77
2021/04/09 10:18:15;;;;;;;3.30;2.00;;;14.60;92.40;;;;;;6094899;23;20183;-76
2021/04/09 10:20:41;;;;;;;3.53;1.90;;;14.70;92.10;;;;;;6095256;23;20179;-75
2021/04/09 10:23:08;;;;;;;4.07;1.80;;;14.50;92.30;;;;;;6094948;23;20212;-79
2021/04/09 10:25:36;;;;;;;3.40;1.80;;;14.40;91.90;;;;;;6094106;23;20183;-77
2021/04/09 10:28:05;;;;;;;2.70;1.50;;;14.20;92.00;;;;;;6094790;23;20195;-77
2021/04/09 10:30:33;;;;;;;3.83;1.60;;;14.40;92.40;;;;;;6095041;23;20267;-76
2021/04/09 10:32:59;;;;;;;3.37;1.50;;;14.60;92.50;;;;;;6094481;23;20526;-76
2021/04/09 10:35:28;;;;;;;2.90;1.70;;;14.70;91.90;;;;;;6095350;23;20180;-77
2021/04/09 10:38:08;;;;;;;2.43;1.40;;;14.60;92.00;;;;;;6095392;23;20262;-75
2021/04/09 10:40:34;;;;;;;4.83;1.90;;;14.50;92.30;;;;;;6094269;23;20184;-78
2021/04/09 10:43:01;;;;;;;3.70;1.70;;;14.50;92.30;;;;;;6094848;23;20644;-78
2021/04/09 10:45:27;;;;;;;4.67;2.10;;;14.40;92.10;;;;;;6096827;23;20184;-72
2021/04/09 10:47:55;;;;;;;2.67;1.57;;;14.40;92.20;;;;;;6097101;23;20184;-71
2021/04/09 10:50:22;;;;;;;3.30;1.73;;;14.50;93.00;;;;;;6096591;23;20511;-72
2021/04/09 10:52:49;;;;;;;3.63;1.70;;;14.40;92.50;;;;;;6096350;23;20794;-73
2021/04/09 10:55:15;;;;;;;3.20;1.70;;;14.60;92.50;;;;;;6095813;23;20211;-72
2021/04/09 10:57:41;;;;;;;2.63;1.90;;;14.70;92.30;;;;;;6097435;23;20634;-72
2021/04/09 11:00:09;;;;;;;2.37;1.70;;;14.90;92.80;;;;;;6098994;23;20251;-73
2021/04/09 11:02:37;;;;;;;3.37;1.40;;;15.10;92.10;;;;;;6098409;23;20681;-71
2021/04/09 11:05:05;;;;;;;6.07;2.07;;;14.90;92.10;;;;;;6099177;23;20559;-72
2021/04/09 11:07:42;;;;;;;4.07;1.40;;;14.80;92.60;;;;;;6098472;23;20238;-72
2021/04/09 11:10:09;;;;;;;3.17;1.20;;;15.00;92.70;;;;;;6098378;23;20638;-73
2021/04/09 11:12:36;;;;;;;4.50;1.40;;;15.00;92.60;;;;;;6098347;23;20262;-72
2021/04/09 11:15:08;;;;;;;2.50;1.57;;;15.00;92.40;;;;;;6098566;23;20203;-75
2021/04/09 11:17:35;;;;;;;3.37;1.83;;;15.00;92.10;;;;;;6097769;23;20185;-74
2021/04/09 11:20:18;;;;;;;3.30;1.80;;;14.70;92.00;;;;;;6098365;23;20239;-74
2021/04/09 11:22:45;;;;;;;3.00;1.87;;;14.50;92.70;;;;;;6098295;23;20214;-73
2021/04/09 11:25:12;;;;;;;3.67;1.60;;;14.60;92.80;;;;;;6097753;23;20702;-73
2021/04/09 11:27:41;;;;;;;2.63;1.77;;;14.80;92.50;;;;;;6098828;23;20231;-74
2021/04/09 11:30:14;;;;;;;3.20;1.73;;;15.10;92.60;;;;;;6098994;23;20202;-74
2021/04/09 11:32:44;;;;;;;4.90;1.90;;;15.20;92.30;;;;;;6098342;23;20260;-74
2021/04/09 11:35:13;;;;;;;2.57;1.60;;;15.50;92.00;;;;;;6098245;23;20211;-76
2021/04/09 11:37:43;;;;;;;2.97;1.63;;;15.30;91.80;;;;;;6098101;23;20511;-75
2021/04/09 11:40:11;;;;;;;3.23;1.90;;;15.30;92.10;;;;;;6098418;23;20179;-76
2021/04/09 11:42:37;;;;;;;4.10;1.90;;;15.40;92.30;;;;;;6097331;23;20242;-76
2021/04/09 11:45:06;;;;;;;2.47;1.70;;;15.50;91.70;;;;;;6098478;23;20184;-75
2021/04/09 11:47:34;;;;;;;6.07;2.00;;;15.40;91.80;;;;;;6098106;23;20502;-74
2021/04/09 11:50:14;;;;;;;2.27;1.60;;;15.30;91.50;;;;;;6098154;23;20187;-75
2021/04/09 11:52:58;;;;;;;4.87;1.67;;;15.30;92.10;;;;;;6097721;23;20207;-76
2021/04/09 11:55:27;;;;;;;2.30;1.77;;;15.50;91.30;;;;;;6097872;23;20888;-74
2021/04/09 11:57:54;;;;;;;3.63;1.70;;;15.60;91.30;;;;;;6097961;23;20190;-73
2021/04/09 12:00:23;;;;;;;5.37;1.80;;;15.70;91.20;;;;;;6098286;23;20190;-72
2021/04/09 12:02:51;;;;;;;7.27;2.00;;;16.10;90.90;;;;;;6097504;23;20239;-72
2021/04/09 12:05:19;;;;;;;2.87;1.70;;;16.20;90.00;;;;;;6097692;23;20190;-72
2021/04/09 12:07:46;;;;;;;3.53;1.77;;;16.10;88.60;;;;;;6098831;23;20195;-72
2021/04/09 12:10:13;;;;;;;2.30;1.67;;;15.90;88.70;;;;;;6098165;23;20180;-72
2021/04/09 12:12:42;;;;;;;3.50;2.10;;;15.90;90.50;;;;;;6098207;23;20200;-73
2021/04/09 12:15:09;;;;;;;3.90;2.10;;;16.00;89.80;;;;;;6098076;23;20191;-71
2021/04/09 12:17:35;;;;;;;4.50;2.10;;;16.20;90.20;;;;;;6097885;23;20188;-72
2021/04/09 12:20:05;;;;;;;3.47;1.93;;;16.40;89.90;;;;;;6098075;23;20208;-72
2021/04/09 12:22:33;;;;;;;3.33;1.83;;;16.30;89.70;;;;;;6094534;23;20219;-72
2021/04/09 12:25:00;;;;;;;6.27;1.87;;;16.30;89.00;;;;;;6097482;23;20180;-70
2021/04/09 12:27:26;;;;;;;3.33;2.27;;;16.10;89.90;;;;;;6097461;23;20184;-72
2021/04/09 12:29:52;;;;;;;5.83;2.00;;;16.20;88.20;;;;;;6097974;23;20189;-71
2021/04/09 12:32:18;;;;;;;5.53;1.97;;;16.40;89.90;;;;;;6097336;23;20190;-71
2021/04/09 12:34:45;;;;;;;3.30;2.13;;;16.40;89.30;;;;;;6097778;23;20179;-71
2021/04/09 12:37:11;;;;;;;3.23;2.20;;;16.40;89.70;;;;;;6097206;23;20266;-70
2021/04/09 12:39:38;;;;;;;5.03;1.97;;;16.50;89.00;;;;;;6096815;23;20203;-71
2021/04/09 12:42:05;;;;;;;2.97;1.93;;;16.60;89.40;;;;;;6097034;23;20179;-71
2021/04/09 12:44:31;;;;;;;4.03;2.13;;;16.70;87.50;;;;;;6097792;23;20262;-72
2021/04/09 12:46:57;;;;;;;4.17;2.20;;;16.70;89.00;;;;;;6097866;23;20239;-72
2021/04/09 12:49:24;;;;;;;3.23;1.90;;;16.80;89.50;;;;;;6097666;23;20234;-71
2021/04/09 12:51:51;;;;;;;4.97;2.03;;;16.80;88.40;;;;;;6097427;23;20515;-72
2021/04/09 12:54:18;;;;;;;3.00;2.00;;;16.80;88.30;;;;;;6097427;23;20221;-72
2021/04/09 12:56:46;;;;;;;4.33;2.17;;;16.40;88.30;;;;;;6097208;23;20223;-73
2021/04/09 12:59:12;;;;;;;5.43;2.23;;;16.20;88.30;;;;;;6097492;23;20184;-72
2021/04/09 13:01:38;;;;;;;3.83;2.13;;;16.00;90.10;;;;;;6097475;23;20179;-75
2021/04/09 13:04:05;;;;;;;3.73;2.10;;;15.70;88.70;;;;;;6097542;23;20222;-75
2021/04/09 13:06:31;;;;;;;4.87;2.47;;;15.70;89.70;;;;;;6097602;23;20180;-72
2021/04/09 13:08:57;;;;;;;4.03;2.10;;;15.90;89.70;;;;;;6096988;23;20186;-76
2021/04/09 13:11:23;;;;;;;4.40;2.03;;;16.00;89.10;;;;;;6096910;23;20494;-76
2021/04/09 13:13:52;;;;;;;4.77;2.13;;;16.00;89.90;;;;;;6096025;23;20675;-76
2021/04/09 13:16:19;;;;;;;2.87;1.90;;;16.10;89.60;;;;;;6097045;23;20639;-75
2021/04/09 13:18:45;;;;;;;7.10;2.37;;;16.00;89.40;;;;;;6097110;23;20202;-72
2021/04/09 13:21:11;;;;;;;4.30;2.60;;;16.10;90.00;;;;;;6096664;23;20631;-73
2021/04/09 13:23:38;;;;;;;4.97;2.03;;;16.20;89.20;;;;;;6096442;23;20576;-72
2021/04/09 13:26:04;;;;;;;5.53;2.70;;;16.50;89.00;;;;;;6097778;23;20190;-72
2021/04/09 13:28:30;;;;;;;5.17;2.30;;;16.90;89.40;;;;;;6096857;23;20183;-71
2021/04/09 13:30:59;;;;;;;4.00;2.40;;;17.00;88.00;;;;;;6097432;23;20535;-71
2021/04/09 13:33:26;;;;;;;4.83;2.30;;;17.00;86.90;;;;;;6097161;23;20204;-72
2021/04/09 13:35:53;;;;;;;5.03;2.40;;;17.00;86.80;;;;;;6097728;23;20183;-71
2021/04/09 13:38:19;;;;;;;4.83;2.10;;;16.90;86.70;;;;;;6097040;23;20631;-71
2021/04/09 13:40:46;;;;;;;4.27;2.07;;;16.70;86.70;;;;;;6097254;23;20180;-71
2021/04/09 13:43:13;;;;;;;3.80;2.37;;;16.70;86.80;;;;;;6097157;23;20215;-72
2021/04/09 13:45:40;;;;;;;3.80;2.20;;;16.70;87.70;;;;;;6097528;23;20183;-72
2021/04/09 13:48:08;;;;;;;4.47;2.30;;;16.60;85.70;;;;;;6097284;23;20203;-72
2021/04/09 13:50:34;;;;;;;4.30;2.13;;;16.70;86.30;;;;;;6097381;23;20510;-71
2021/04/09 13:53:00;;;;;;;3.37;2.20;;;16.60;86.40;;;;;;6097314;23;20207;-72
2021/04/09 13:55:27;;;;;;;3.70;2.20;;;16.50;87.30;;;;;;6096903;23;20669;-71
2021/04/09 13:57:53;;;;;;;5.90;2.60;;;16.40;87.40;;;;;;6097171;23;20188;-71
2021/04/09 14:00:21;;;;;;;3.57;2.27;;;16.40;87.00;;;;;;6092556;23;20183;-74
2021/04/09 14:02:47;;;;;;;2.97;1.93;;;16.60;88.40;;;;;;6095007;23;20215;-74
2021/04/09 14:05:15;;;;;;;4.97;2.90;;;16.60;87.00;;;;;;6094942;23;20183;-72
2021/04/09 14:07:41;;;;;;;4.13;2.40;;;16.60;87.60;;;;;;6094660;23;20183;-74
2021/04/09 14:10:09;;;;;;;3.23;2.13;;;16.60;87.00;;;;;;6094790;23;20643;-76
2021/04/09 14:12:36;;;;;;;2.30;1.93;;;16.60;87.10;;;;;;6094114;23;20204;-75
2021/04/09 14:15:03;;;;;;;4.87;2.20;;;16.50;87.20;;;;;;6096358;23;20179;-73
2021/04/09 14:17:29;;;;;;;5.77;2.20;;;16.40;87.10;;;;;;6096578;23;20201;-74
2021/04/09 14:19:55;;;;;;;6.07;3.10;;;16.40;87.20;;;;;;6096650;23;20180;-75
2021/04/09 14:22:22;;;;;;;3.30;2.43;;;16.60;87.50;;;;;;6096759;23;20180;-75
2021/04/09 14:24:49;;;;;;;2.87;2.20;;;16.70;87.40;;;;;;6096733;23;20179;-73
2021/04/09 14:27:15;;;;;;;4.30;1.87;;;16.90;86.80;;;;;;6096872;23;20180;-73
2021/04/09 14:29:41;;;;;;;4.17;2.57;;;17.00;86.70;;;;;;6097128;23;20187;-73
2021/04/09 14:32:08;;;;;;;4.40;1.97;;;17.10;87.80;;;;;;6096651;23;20180;-71
2021/04/09 14:34:35;;;;;;;4.30;2.23;;;17.10;85.90;;;;;;6096868;23;20183;-73
2021/04/09 14:37:01;;;;;;;2.70;1.80;;;17.20;85.40;;;;;;6096577;23;20188;-73
2021/04/09 14:39:28;;;;;;;3.43;2.00;;;17.00;84.60;;;;;;6097189;23;20180;-73
2021/04/09 14:41:54;;;;;;;4.90;2.17;;;16.90;85.00;;;;;;6096421;23;20647;-73
2021/04/09 14:44:21;;;;;;;3.00;2.00;;;16.70;85.60;;;;;;6096477;23;20211;-72
2021/04/09 14:46:47;;;;;;;2.37;1.80;;;16.50;85.00;;;;;;6096793;23;20186;-72
2021/04/09 14:49:13;;;;;;;3.33;2.20;;;16.40;86.60;;;;;;6096802;23;20190;-72
2021/04/09 14:51:39;;;;;;;2.80;1.87;;;16.50;85.80;;;;;;6097248;23;20180;-72
2021/04/09 14:54:06;;;;;;;4.47;1.90;;;16.00;84.10;;;;;;6096971;23;20207;-71
2021/04/09 14:56:33;;;;;;;4.40;2.43;;;15.80;85.20;;;;;;6096810;23;20218;-72
2021/04/09 14:58:59;;;;;;;4.47;2.33;;;15.70;86.60;;;;;;6096631;23;20183;-71
2021/04/09 15:01:26;;;;;;;4.70;1.90;;;15.80;85.20;;;;;;6096741;23;20184;-72
2021/04/09 15:03:52;;;;;;;2.50;2.00;;;15.80;85.40;;;;;;6096917;23;20215;-72
2021/04/09 15:06:19;;;;;;;5.90;2.10;;;15.80;86.60;;;;;;6097008;23;20201;-71
2021/04/09 15:08:45;;;;;;;3.30;1.87;;;15.70;84.60;;;;;;6096992;23;20498;-73
2021/04/09 15:11:12;;;;;;;2.73;2.30;;;15.80;86.80;;;;;;6096732;23;20179;-71
2021/04/09 15:13:39;;;;;;;4.20;2.40;;;15.90;85.50;;;;;;6096919;23;20200;-72
2021/04/09 15:16:07;;;;;;;2.57;1.90;;;16.00;84.70;;;;;;6092680;23;20179;-74
2021/04/09 15:18:35;;;;;;;2.97;2.30;;;16.00;84.50;;;;;;6092727;23;20187;-74
2021/04/09 15:21:01;;;;;;;2.83;2.00;;;16.00;85.40;;;;;;6095333;23;20180;-73
2021/04/09 15:23:28;;;;;;;3.77;2.10;;;16.10;83.60;;;;;;6095446;23;20342;-72
2021/04/09 15:25:55;;;;;;;3.50;2.70;;;16.10;83.70;;;;;;6096828;23;20539;-72
2021/04/09 15:28:22;;;;;;;4.87;1.80;;;16.00;84.80;;;;;;6096320;23;20212;-71
2021/04/09 15:30:54;;;;;;;3.00;2.00;;;16.00;85.10;;;;;;6096951;23;20662;-71
2021/04/09 15:33:22;;;;;;;3.70;2.17;;;16.10;85.00;;;;;;6096981;23;20231;-72
2021/04/09 15:35:52;;;;;;;3.03;2.00;;;16.20;83.60;;;;;;6096930;23;20183;-72
2021/04/09 15:38:20;;;;;;;4.80;2.23;;;16.20;83.90;;;;;;6096975;23;20186;-71
2021/04/09 15:40:47;;;;;;;3.23;1.90;;;16.10;83.70;;;;;;6096929;23;20634;-71
2021/04/09 15:43:13;;;;;;;2.93;1.80;;;16.00;83.70;;;;;;6096602;23;20212;-72
2021/04/09 15:45:39;;;;;;;3.97;2.10;;;15.80;84.80;;;;;;6098425;23;20179;-72
2021/04/09 15:48:10;;;;;;;6.10;2.20;;;15.60;84.40;;;;;;6098787;23;20180;-71
2021/04/09 15:50:37;;;;;;;3.43;2.10;;;15.50;85.30;;;;;;6098639;23;20239;-70
2021/04/09 15:53:04;;;;;;;3.20;2.03;;;15.50;83.50;;;;;;6098578;23;20647;-71
2021/04/09 15:55:30;;;;;;;4.93;2.17;;;15.60;83.90;;;;;;6097995;23;20635;-69
2021/04/09 15:57:58;;;;;;;5.33;1.93;;;15.70;83.70;;;;;;6097881;23;20191;-71
2021/04/09 16:00:25;;;;;;;2.97;1.97;;;15.90;83.80;;;;;;6098031;23;20203;-70
2021/04/09 16:02:52;;;;;;;4.77;2.07;;;16.10;83.90;;;;;;6097689;23;20215;-71
2021/04/09 16:05:20;;;;;;;3.23;1.80;;;16.00;83.10;;;;;;6098004;23;20211;-71
2021/04/09 16:07:47;;;;;;;5.37;2.10;;;16.20;83.10;;;;;;6098469;23;20231;-71
2021/04/09 16:10:14;;;;;;;3.90;2.10;;;16.30;81.60;;;;;;6098425;23;20186;-71
2021/04/09 16:12:40;;;;;;;5.13;2.00;;;16.30;81.30;;;;;;6097750;23;20222;-72
2021/04/09 16:15:08;;;;;;;3.40;2.03;;;16.10;79.90;;;;;;6097766;23;20179;-72
2021/04/09 16:17:34;;;;;;;3.50;1.90;;;16.10;81.10;;;;;;6098121;23;20183;-71
2021/04/09 16:20:00;;;;;;;4.63;1.73;;;16.10;80.20;;;;;;6098285;23;20190;-71
2021/04/09 16:22:27;;;;;;;4.77;1.97;;;16.00;82.20;;;;;;6097858;23;20206;-71
2021/04/09 16:24:54;;;;;;;4.20;2.07;;;16.10;81.70;;;;;;6097858;23;20675;-72
2021/04/09 16:27:20;;;;;;;4.03;1.77;;;15.90;80.80;;;;;;6097711;23;20195;-71
2021/04/09 16:29:46;;;;;;;4.03;1.80;;;15.90;80.80;;;;;;6097487;23;20643;-71
2021/04/09 16:32:12;;;;;;;4.30;1.90;;;15.60;82.70;;;;;;6097674;23;20669;-71
2021/04/09 16:34:39;;;;;;;3.00;1.73;;;15.70;83.00;;;;;;6097983;23;20183;-72
2021/04/09 16:37:05;;;;;;;5.10;2.00;;;15.70;82.80;;;;;;6097798;23;20187;-72
2021/04/09 16:39:32;;;;;;;3.63;2.10;;;15.80;83.10;;;;;;6097506;23;20179;-71
2021/04/09 16:41:59;;;;;;;3.20;1.80;;;15.90;82.00;;;;;;6097559;23;20198;-72
2021/04/09 16:44:26;;;;;;;3.77;1.93;;;15.80;80.70;;;;;;6097942;23;20237;-71
2021/04/09 16:46:52;;;;;;;4.07;2.07;;;15.70;81.20;;;;;;6097957;23;20184;-72
2021/04/09 16:49:18;;;;;;;3.77;2.00;;;15.70;81.20;;;;;;6097597;23;20190;-73
2021/04/09 16:51:44;;;;;;;4.07;2.33;;;15.60;81.80;;;;;;6097294;23;20643;-72
2021/04/09 16:54:11;;;;;;;4.50;2.10;;;15.70;82.90;;;;;;6097108;23;20204;-72
2021/04/09 16:56:39;;;;;;;2.87;1.73;;;15.60;81.30;;;;;;6096671;23;20194;-73
2021/04/09 16:59:05;;;;;;;4.90;2.37;;;15.60;81.40;;;;;;6097730;23;20191;-72
2021/04/09 17:01:31;;;;;;;5.00;2.07;;;15.60;83.10;;;;;;6097882;23;20186;-73
2021/04/09 17:03:57;;;;;;;3.50;2.13;;;15.60;81.80;;;;;;6097320;23;20218;-73
2021/04/09 17:06:24;;;;;;;5.57;2.10;;;15.60;80.30;;;;;;6097237;23;20540;-72
2021/04/09 17:08:50;;;;;;;6.13;2.80;;;15.60;80.40;;;;;;6097501;23;20187;-73
2021/04/09 17:11:20;;;;;;;7.97;2.83;;;15.60;80.80;;;;;;6097410;23;20180;-72
2021/04/09 17:13:47;;;;;;;5.23;2.67;;;15.70;82.80;;;;;;6097701;23;20211;-71
2021/04/09 17:16:13;;;;;;;5.63;2.30;;;15.70;80.60;;;;;;6097522;23;20190;-71
2021/04/09 17:18:39;;;;;;;4.20;2.37;;;15.70;81.20;;;;;;6097023;23;20701;-72
2021/04/09 17:21:06;;;;;;;4.77;2.00;;;15.70;81.10;;;;;;6095594;23;20187;-73
2021/04/09 17:23:32;;;;;;;5.90;2.43;;;15.60;82.30;;;;;;6095505;23;20538;-70
2021/04/09 17:25:58;;;;;;;2.57;1.77;;;15.60;82.80;;;;;;6096791;23;20230;-69
2021/04/09 17:28:24;;;;;;;3.13;2.07;;;15.60;83.10;;;;;;6094031;23;20184;-72
2021/04/09 17:30:51;;;;;;;5.13;2.60;;;15.60;82.30;;;;;;6096749;23;20188;-72
2021/04/09 17:33:18;;;;;;;3.40;2.17;;;15.60;82.70;;;;;;6096563;23;20584;-72
2021/04/09 17:35:44;;;;;;;4.67;2.43;;;15.30;83.50;;;;;;6097176;23;20191;-72
2021/04/09 17:38:10;;;;;;;5.27;2.40;;;15.40;83.30;;;;;;6096438;23;20592;-72
2021/04/09 17:40:36;;;;;;;4.53;2.23;;;15.50;82.40;;;;;;6097381;23;20191;-73
2021/04/09 17:43:03;;;;;;;4.20;2.30;;;15.50;82.60;;;;;;6097081;23;20215;-73
2021/04/09 17:45:29;;;;;;;5.70;2.27;;;15.60;83.00;;;;;;6097089;23;20191;-73
2021/04/09 17:47:56;;;;;;;6.20;2.13;;;15.70;83.90;;;;;;6096924;23;20179;-73
2021/04/09 17:50:22;;;;;;;3.10;2.33;;;15.60;84.40;;;;;;6096767;23;20690;-73
2021/04/09 17:52:48;;;;;;;3.23;2.10;;;15.50;84.30;;;;;;6097105;23;20207;-73
2021/04/09 17:55:15;;;;;;;5.67;2.63;;;15.50;84.50;;;;;;6097310;23;20183;-73
2021/04/09 17:57:41;;;;;;;3.67;2.27;;;15.40;84.50;;;;;;6097205;23;20179;-73
2021/04/09 18:00:10;;;;;;;3.80;2.50;;;15.40;85.10;;;;;;6097130;23;20186;-73
2021/04/09 18:02:36;;;;;;;5.67;2.33;;;15.30;86.00;;;;;;6097278;23;20206;-73
2021/04/09 18:05:05;;;;;;;4.43;2.20;;;15.30;85.10;;;;;;6097428;23;20266;-72
2021/04/09 18:07:31;;;;;;;5.10;2.60;;;15.30;85.80;;;;;;6096575;23;20179;-73
2021/04/09 18:09:57;;;;;;;7.90;3.67;;;15.20;84.90;;;;;;6097236;23;20689;-73
2021/04/09 18:12:23;;;;;;;6.43;3.57;;;15.20;85.30;;;;;;6096329;23;20631;-73
2021/04/09 18:14:50;;;;;;;8.57;3.60;;;15.20;86.40;;;;;;6097326;23;20211;-73
2021/04/09 18:17:16;;;;;;;6.83;3.87;;;15.00;88.10;;;;;;6097393;23;20191;-73
2021/04/09 18:19:42;;;;;;;4.07;2.80;;;14.80;89.50;;;;;;6096676;23;20184;-73
2021/04/09 18:22:13;;;;;;;4.43;2.47;;;14.70;90.70;;;;;;6096910;23;20184;-73
2021/04/09 18:24:39;;;;;;;5.17;2.90;;;14.60;91.20;;;;;;6096665;23;20211;-73
2021/04/09 18:27:07;;;;;;;5.27;2.93;;;14.50;91.40;;;;;;6096681;23;20180;-73
2021/04/09 18:29:33;;;;;;;6.43;2.83;;;14.40;92.00;;;;;;6097044;23;20180;-73
2021/04/09 18:31:59;;;;;;;5.93;3.17;;;14.30;92.10;;;;;;6096615;23;20194;-72
2021/04/09 18:34:25;;;;;;;4.87;2.60;;;14.40;90.80;;;;;;6097032;23;20203;-72
2021/04/09 18:36:52;;;;;;;4.93;2.83;;;14.40;91.20;;;;;;6096870;23;20235;-72
2021/04/09 18:39:19;;;;;;;5.37;3.20;;;14.40;91.60;;;;;;6096618;23;20191;-72
2021/04/09 18:41:45;;;;;;;7.20;3.60;;;14.40;91.90;;;;;;6096510;23;20238;-72
2021/04/09 18:44:11;;;;;;;7.40;3.57;;;14.00;92.60;;;;;;6096560;23;20527;-72
2021/04/09 18:46:38;;;;;;;4.90;2.97;;;14.00;93.00;;;;;;6096318;23;20638;-72
2021/04/09 18:49:06;;;;;;;4.33;3.07;;;13.80;93.30;;;;;;6096614;23;20242;-72
2021/04/09 18:51:32;;;;;;;7.07;3.03;;;13.70;93.40;;;;;;6096341;23;20631;-72
2021/04/09 18:53:58;;;;;;;5.63;3.20;;;13.60;93.60;;;;;;6096570;23;20200;-72
2021/04/09 18:56:25;;;;;;;5.13;3.23;;;13.40;94.00;;;;;;6096395;23;20199;-73
2021/04/09 18:58:52;;;;;;;8.27;3.40;;;13.20;94.20;;;;;;6096316;23;20183;-73
2021/04/09 19:01:19;;;;;;;6.00;3.17;;;13.10;94.40;;;;;;6097009;23;20511;-73
2021/04/09 19:03:47;;;;;;;6.57;3.40;;;13.20;94.50;;;;;;6096223;23;20741;-73
2021/04/09 19:06:13;;;;;;;6.87;3.10;;;13.20;94.40;;;;;;6096450;23;20230;-73
2021/04/09 19:08:39;;;;;;;5.27;2.90;;;13.10;94.40;;;;;;6096694;23;20651;-73
2021/04/09 19:11:06;;;;;;;5.27;3.30;;;13.00;94.70;;;;;;6096804;23;20183;-73
2021/04/09 19:13:33;;;;;;;6.07;3.30;;;12.90;94.80;;;;;;6096790;23;20250;-73
2021/04/09 19:15:59;;;;;;;6.57;3.50;;;13.00;94.90;;;;;;6096190;23;20187;-73
2021/04/09 19:18:25;;;;;;;5.83;3.47;;;13.00;94.80;;;;;;6097595;23;20242;-74
2021/04/09 19:20:52;;;;;;;4.77;3.27;;;13.10;94.80;;;;;;6098894;23;20230;-74
2021/04/09 19:23:18;;;;;;;7.00;3.40;;;13.10;94.80;;;;;;6098740;23;20678;-71
2021/04/09 19:25:44;;;;;;;6.97;2.83;;;13.10;94.80;;;;;;6098699;23;20189;-74
2021/04/09 19:28:10;;;;;;;5.17;3.60;;;13.20;94.70;;;;;;6098501;23;20180;-72
2021/04/09 19:30:38;;;;;;;6.40;3.23;;;13.20;94.70;;;;;;6098598;23;20563;-72
2021/04/09 19:33:05;;;;;;;7.73;3.30;;;13.20;94.90;;;;;;6098873;23;20208;-72
2021/04/09 19:35:32;;;;;;;5.30;3.70;;;13.10;95.00;;;;;;6099050;23;20219;-72
2021/04/09 19:37:59;;;;;;;7.33;3.53;;;13.00;95.10;;;;;;6099038;23;20230;-72
2021/04/09 19:40:25;;;;;;;4.97;3.33;;;13.00;95.20;;;;;;6097858;23;20186;-72
2021/04/09 19:42:52;;;;;;;5.63;3.83;;;13.10;95.30;;;;;;6098623;23;20204;-72
2021/04/09 19:45:20;;;;;;;5.47;3.70;;;13.10;95.30;;;;;;6098578;23;20179;-73
2021/04/09 19:47:48;;;;;;;4.87;3.57;;;12.90;95.60;;;;;;6098881;23;20183;-74
2021/04/09 19:50:15;;;;;;;6.63;3.70;;;12.70;96.00;;;;;;6099007;23;20268;-75
2021/04/09 19:52:41;;;;;;;5.50;3.67;;;12.50;96.20;;;;;;6098748;23;20266;-73
2021/04/09 19:55:09;;;;;;;5.80;3.23;;;12.40;96.30;;;;;;6098466;23;20184;-73
2021/04/09 19:57:36;;;;;;;7.53;3.77;;;12.40;96.40;;;;;;6098090;23;20194;-73
2021/04/09 20:00:03;;;;;;;7.87;4.00;;;12.40;96.60;;;;;;6098583;23;20179;-73
2021/04/09 20:02:30;;;;;;;5.60;3.70;;;12.40;96.50;;;;;;6098560;23;20204;-74
2021/04/09 20:04:57;;;;;;;7.50;4.13;;;12.40;96.40;;;;;;6098622;23;20211;-73
2021/04/09 20:07:23;;;;;;;6.13;3.37;;;12.50;96.60;;;;;;6098639;23;20202;-73
2021/04/09 20:09:49;;;;;;;7.20;4.03;;;12.50;96.50;;;;;;6098228;23;20183;-73
2021/04/09 20:12:16;;;;;;;4.67;3.33;;;12.30;96.80;;;;;;6098400;23;20186;-73
2021/04/09 20:14:42;;;;;;;5.70;3.83;;;12.30;96.90;;;;;;6098097;23;20195;-72
2021/04/09 20:17:08;;;;;;;4.90;3.40;;;12.20;97.20;;;;;;6098259;23;20179;-73
2021/04/09 20:19:35;;;;;;;6.67;3.80;;;12.00;97.60;;;;;;6098184;23;20195;-74
2021/04/09 20:22:02;;;;;;;6.10;3.77;;;12.00;97.70;;;;;;6098233;23;20254;-73
2021/04/09 20:24:28;;;;;;;8.17;3.83;;;11.80;98.10;;;;;;6097933;23;20738;-73
2021/04/09 20:26:55;;;;;;;6.50;3.57;;;11.80;98.30;;;;;;6098231;23;20283;-73
2021/04/09 20:29:21;;;;;;;6.03;3.93;;;11.90;98.30;;;;;;6098150;23;20222;-73
2021/04/09 20:31:47;;;;;;;6.00;3.73;;;12.00;98.50;;;;;;6098285;23;20179;-72
2021/04/09 20:34:14;;;;;;;6.03;3.97;;;12.00;98.10;;;;;;6098240;23;20200;-73
2021/04/09 20:36:40;;;;;;;7.83;4.17;;;12.00;98.20;;;;;;6098427;23;20180;-73
2021/04/09 20:39:07;;;;;;;6.07;4.00;;;12.10;98.10;;;;;;6098227;23;20263;-73
2021/04/09 20:41:34;;;;;;;6.27;4.30;;;12.20;98.10;;;;;;6098337;23;20185;-73
2021/04/09 20:44:00;;;;;;;5.90;3.87;;;12.00;98.40;;;;;;6098090;23;20215;-72
2021/04/09 20:46:26;;;;;;;6.20;3.97;;;12.00;98.50;;;;;;6097644;23;20556;-73
2021/04/09 20:48:52;;;;;;;5.80;3.70;;;12.10;98.40;;;;;;6098147;23;20228;-73
2021/04/09 20:51:19;;;;;;;9.17;4.00;;;12.00;98.50;;;;;;6097805;23;20183;-72
